Time;durP1;ratioP1;P1;durP2;ratioP2;P2;SDS_P1;SDS_P2;PMS_P1;PMS_P2;Temp;Humidity;BMP_temperature;BMP_pressure;BME280_temperature;BME280_humidity;BME280_pressure;Samples;Min_cycle;Max_cycle;Signal;HPM_P1;HPM_P2
2023/06/26 00:01:17;;;;;;;;;;;;;;;-140.72;0.00;52114.91;4984830;28;19926;-69
2023/06/26 00:03:42;;;;;;;;;;;;;;;-140.72;0.00;52098.69;4982492;28;19921;-70
2023/06/26 00:06:07;;;;;;;;;;;;;;;-140.72;0.00;52090.56;4980906;28;20012;-69
2023/06/26 00:08:32;;;;;;;;;;;;;;;-140.72;0.00;52139.25;4988885;28;19926;-69
2023/06/26 00:10:57;;;;;;;;;;;;;;;-140.72;0.00;52084.47;4985267;28;20439;-69
2023/06/26 00:13:24;;;;;;;;;;;;;;;-140.72;0.00;52110.84;4988997;28;19976;-69
2023/06/26 00:15:50;;;;;;;;;;;;;;;-140.72;0.00;52118.97;4985854;28;20296;-69
2023/06/26 00:18:15;;;;;;;;;;;;;;;-140.72;0.00;52129.13;4988848;28;19922;-69
2023/06/26 00:20:40;;;;;;;;;;;;;;;-140.72;0.00;52139.25;4990678;28;20040;-69
2023/06/26 00:23:07;;;;;;;;;;;;;;;-140.72;0.00;52129.13;4989449;28;19930;-69
2023/06/26 00:25:32;;;;;;;;;;;;;;;-140.72;0.00;52147.38;4994469;28;20263;-69
2023/06/26 00:27:57;;;;;;;;;;;;;;;-140.72;0.00;52165.63;4987987;28;19929;-69
2023/06/26 00:30:23;;;;;;;;;;;;;;;-140.72;0.00;52143.31;4992656;28;19928;-69
2023/06/26 00:32:48;;;;;;;;;;;;;;;-140.72;0.00;52161.56;4991851;28;20023;-69
2023/06/26 00:35:13;;;;;;;;;;;;;;;-140.72;0.00;52155.50;4991811;28;19922;-69
2023/06/26 00:37:39;;;;;;;;;;;;;;;-140.72;0.00;52149.41;4989699;28;19922;-69
2023/06/26 00:40:05;;;;;;;;;;;;;;;-140.72;0.00;52167.66;4993756;28;19921;-68
2023/06/26 00:42:30;;;;;;;;;;;;;;;-140.72;0.00;52187.97;4992965;28;20275;-70
2023/06/26 00:44:55;;;;;;;;;;;;;;;-140.72;0.00;52183.91;4991849;28;19929;-70
2023/06/26 00:47:21;;;;;;;;;;;;;;;-140.72;0.00;52220.41;4988163;28;20359;-70
2023/06/26 00:49:46;;;;;;;;;;;;;;;-140.72;0.00;52218.38;4991315;28;19932;-70
2023/06/26 00:52:11;;;;;;;;;;;;;;;-140.72;0.00;52228.53;4994490;28;19922;-70
2023/06/26 00:54:37;;;;;;;;;;;;;;;-140.72;0.00;52200.13;4994172;28;19922;-69
2023/06/26 00:57:02;;;;;;;;;;;;;;;-140.72;9.21;52200.13;4990670;28;20222;-69
2023/06/26 00:59:27;;;;;;;;;;;;;;;-140.72;23.39;52216.34;4989687;28;19922;-69
2023/06/26 01:01:52;;;;;;;;;;;;;;;-140.72;34.27;52202.16;4987629;28;19957;-69
2023/06/26 01:04:18;;;;;;;;;;;;;;;-140.72;44.51;52212.31;4983058;28;19973;-70
2023/06/26 01:06:48;;;;;;;;;;;;;;;-140.72;63.40;52200.13;4986628;28;19922;-70
2023/06/26 01:09:14;;;;;;;;;;;;;;;-140.72;76.78;52224.47;4990470;28;20008;-69
2023/06/26 01:11:39;;;;;;;;;;;;;;;-140.72;91.73;52228.53;4989783;28;19960;-69
2023/06/26 01:14:04;;;;;;;;;;;;;;;-140.72;100.00;52206.22;4989854;28;19929;-70
2023/06/26 01:16:30;;;;;;;;;;;;;;;-140.72;100.00;52228.53;4992780;28;19921;-69
2023/06/26 01:18:56;;;;;;;;;;;;;;;-140.72;100.00;52261.00;4983513;28;20029;-70
2023/06/26 01:21:24;;;;;;;;;;;;;;;-140.72;100.00;52238.69;4994242;28;19921;-69
2023/06/26 01:23:58;;;;;;;;;;;;;;;-140.72;100.00;52220.41;4993542;28;19922;-69
2023/06/26 01:26:25;;;;;;;;;;;;;;;-140.72;100.00;52224.47;4987662;28;20415;-69
2023/06/26 01:28:52;;;;;;;;;;;;;;;-140.72;100.00;52169.69;4984755;28;19930;-69
2023/06/26 01:31:18;;;;;;;;;;;;;;;-140.72;100.00;52212.31;4986919;28;19922;-70
2023/06/26 01:33:45;;;;;;;;;;;;;;;-140.72;100.00;52214.34;4986566;28;20022;-69
2023/06/26 01:36:10;;;;;;;;;;;;;;;-140.72;100.00;52228.53;4988185;28;20017;-70
2023/06/26 01:38:35;;;;;;;;;;;;;;;-140.72;100.00;52206.22;4985361;28;19997;-70
2023/06/26 01:41:01;;;;;;;;;;;;;;;-140.72;100.00;52232.59;4985226;28;20088;-69
2023/06/26 01:43:35;;;;;;;;;;;;;;;-140.72;100.00;52218.38;4985172;28;20024;-71
2023/06/26 01:46:11;;;;;;;;;;;;;;;-140.72;100.00;52210.28;4985504;28;20055;-70
2023/06/26 01:49:06;;;;;;;;;;;;;;;-140.72;100.00;52234.63;4987377;28;19997;-70
2023/06/26 01:51:35;;;;;;;;;;;;;;;-140.72;100.00;52250.84;4971442;28;19930;-70
2023/06/26 01:54:01;;;;;;;;;;;;;;;-140.72;100.00;52187.97;4968795;28;19921;-70
2023/06/26 01:56:28;;;;;;;;;;;;;;;-140.72;100.00;52196.06;4985615;28;20356;-69
2023/06/26 01:58:54;;;;;;;;;;;;;;;-140.72;100.00;52240.72;4988857;28;20387;-69
2023/06/26 02:01:20;;;;;;;;;;;;;;;-140.72;100.00;52208.25;4970704;28;19926;-70
2023/06/26 02:03:45;;;;;;;;;;;;;;;-140.72;100.00;52228.53;4988772;28;20034;-69
2023/06/26 02:06:10;;;;;;;;;;;;;;;-140.72;100.00;52222.44;4986591;28;20009;-70
2023/06/26 02:08:36;;;;;;;;;;;;;;;-140.72;100.00;52242.75;4989294;28;20376;-69
2023/06/26 02:11:01;;;;;;;;;;;;;;;-140.72;100.00;52204.19;4997123;28;19922;-69
2023/06/26 02:13:26;;;;;;;;;;;;;;;-140.72;100.00;52256.94;4988103;28;20005;-70
2023/06/26 02:15:51;;;;;;;;;;;;;;;-140.72;100.00;52252.88;4993039;28;19934;-70
2023/06/26 02:18:17;;;;;;;;;;;;;;;-140.72;100.00;52240.72;4987982;28;20315;-70
2023/06/26 02:20:43;;;;;;;;;;;;;;;-140.72;100.00;52238.69;4986542;28;19922;-70
2023/06/26 02:23:09;;;;;;;;;;;;;;;-140.72;100.00;52261.00;4988915;28;19974;-69
2023/06/26 02:25:34;;;;;;;;;;;;;;;-140.72;100.00;52240.72;4987617;28;19934;-69
2023/06/26 02:27:59;;;;;;;;;;;;;;;-140.72;100.00;52238.69;4990911;28;19922;-70
2023/06/26 02:30:24;;;;;;;;;;;;;;;-140.72;100.00;52232.59;4987225;28;19921;-69
2023/06/26 02:32:50;;;;;;;;;;;;;;;-140.72;100.00;52256.94;4988347;28;20352;-69
2023/06/26 02:35:15;;;;;;;;;;;;;;;-140.72;100.00;52232.59;4974982;28;19945;-69
2023/06/26 02:37:40;;;;;;;;;;;;;;;-140.72;100.00;52258.97;4990219;28;19921;-69
2023/06/26 02:40:07;;;;;;;;;;;;;;;-140.72;100.00;52226.50;4990510;28;19941;-70
2023/06/26 02:42:33;;;;;;;;;;;;;;;-140.72;100.00;52208.25;4989130;28;20283;-70
2023/06/26 02:44:58;;;;;;;;;;;;;;;-140.72;100.00;52252.88;4990551;28;19933;-69
2023/06/26 02:47:23;;;;;;;;;;;;;;;-140.72;100.00;52234.63;4988813;28;20013;-70
2023/06/26 02:49:48;;;;;;;;;;;;;;;-140.72;100.00;52252.88;4993580;28;19946;-70
2023/06/26 02:52:13;;;;;;;;;;;;;;;-140.72;100.00;52248.81;4993045;28;19926;-70
2023/06/26 02:54:39;;;;;;;;;;;;;;;-140.72;100.00;52265.06;4988053;28;19953;-69
2023/06/26 02:57:04;;;;;;;;;;;;;;;-140.72;100.00;52228.53;4988792;28;20379;-69
2023/06/26 02:59:29;;;;;;;;;;;;;;;-140.72;100.00;52248.81;4986353;28;20065;-69
2023/06/26 03:01:55;;;;;;;;;;;;;;;-140.72;100.00;52256.94;4982665;28;19953;-69
2023/06/26 03:04:21;;;;;;;;;;;;;;;-140.72;100.00;52252.88;4987775;28;19922;-69
2023/06/26 03:06:46;;;;;;;;;;;;;;;-140.72;100.00;52244.78;4987284;28;19929;-69
2023/06/26 03:09:11;;;;;;;;;;;;;;;-140.72;100.00;52267.09;4989646;28;19923;-69
2023/06/26 03:11:37;;;;;;;;;;;;;;;-140.72;100.00;52252.88;4992581;28;19936;-69
2023/06/26 03:14:02;;;;;;;;;;;;;;;-140.72;100.00;52246.78;4994291;28;19922;-70
2023/06/26 03:16:27;;;;;;;;;;;;;;;-140.72;100.00;52261.00;4974415;28;19932;-69
2023/06/26 03:18:52;;;;;;;;;;;;;;;-140.72;100.00;52289.41;4988090;28;19926;-70
2023/06/26 03:21:18;;;;;;;;;;;;;;;-140.72;100.00;52283.31;4982311;28;19926;-69
2023/06/26 03:23:43;;;;;;;;;;;;;;;-140.72;100.00;52258.97;4982237;28;19922;-70
2023/06/26 03:26:08;;;;;;;;;;;;;;;-140.72;100.00;52297.53;4990446;28;19926;-70
2023/06/26 03:28:33;;;;;;;;;;;;;;;-140.72;100.00;52228.53;4994703;28;20363;-69
2023/06/26 03:30:59;;;;;;;;;;;;;;;-140.72;100.00;52261.00;4992549;28;19929;-70
2023/06/26 03:33:24;;;;;;;;;;;;;;;-140.72;100.00;52277.22;4991797;28;20332;-70
2023/06/26 03:35:49;;;;;;;;;;;;;;;-140.72;100.00;52240.72;4993695;28;19936;-70
2023/06/26 03:38:14;;;;;;;;;;;;;;;-140.72;100.00;52291.44;4992015;28;19929;-70
2023/06/26 03:40:40;;;;;;;;;;;;;;;-140.72;100.00;52277.22;4999876;28;19921;-70
2023/06/26 03:43:05;;;;;;;;;;;;;;;-140.72;100.00;52234.63;4993891;28;19976;-70
2023/06/26 03:45:30;;;;;;;;;;;;;;;-140.72;100.00;52293.47;4989627;28;19921;-69
2023/06/26 03:47:55;;;;;;;;;;;;;;;-140.72;100.00;52250.84;4990439;28;19929;-70
2023/06/26 03:50:21;;;;;;;;;;;;;;;-140.72;100.00;52261.00;4985142;28;19929;-70
2023/06/26 03:52:46;;;;;;;;;;;;;;;-140.72;100.00;52303.59;4990607;28;19952;-70
2023/06/26 03:55:11;;;;;;;;;;;;;;;-140.72;100.00;52321.88;4990123;28;19922;-70
2023/06/26 03:57:38;;;;;;;;;;;;;;;-140.72;100.00;52281.28;4988824;28;19922;-70
2023/06/26 04:00:11;;;;;;;;;;;;;;;-140.72;100.00;52289.41;4988429;28;19922;-71
2023/06/26 04:02:38;;;;;;;;;;;;;;;-140.72;100.00;52256.94;4976343;28;19952;-69
2023/06/26 04:05:04;;;;;;;;;;;;;;;-140.72;100.00;52281.28;4993127;28;19964;-69
2023/06/26 04:07:30;;;;;;;;;;;;;;;-140.72;100.00;52285.34;4988887;28;19936;-70
2023/06/26 04:09:56;;;;;;;;;;;;;;;-140.72;100.00;52291.44;4988781;28;20252;-71
2023/06/26 04:12:21;;;;;;;;;;;;;;;-140.72;100.00;52289.41;4974644;28;19948;-73
2023/06/26 04:14:46;;;;;;;;;;;;;;;-140.72;100.00;52303.59;4987869;28;19928;-72
2023/06/26 04:17:12;;;;;;;;;;;;;;;-140.72;100.00;52301.59;4993389;28;19928;-71
2023/06/26 04:19:37;;;;;;;;;;;;;;;-140.72;100.00;52261.00;4988458;28;20013;-71
2023/06/26 04:22:03;;;;;;;;;;;;;;;-140.72;100.00;52283.31;4994986;28;20276;-74
2023/06/26 04:24:28;;;;;;;;;;;;;;;-140.72;100.00;52289.41;4991653;28;19926;-73
2023/06/26 04:26:56;;;;;;;;;;;;;;;-140.72;100.00;52269.13;4994611;28;19922;-74
2023/06/26 04:29:25;;;;;;;;;;;;;;;-140.72;100.00;52297.53;4989345;28;19922;-72
2023/06/26 04:31:51;;;;;;;;;;;;;;;-140.72;100.00;52293.47;4993851;28;19949;-73
2023/06/26 04:34:17;;;;;;;;;;;;;;;-140.72;100.00;52309.69;4993275;28;20066;-78
2023/06/26 04:37:17;;;;;;;;;;;;;;;-140.72;100.00;52283.31;4992181;28;20018;-74
2023/06/26 04:39:42;;;;;;;;;;;;;;;-140.72;100.00;52277.22;4984073;28;20368;-73
2023/06/26 04:42:07;;;;;;;;;;;;;;;-140.72;100.00;52336.06;4976996;28;19929;-74
2023/06/26 04:44:33;;;;;;;;;;;;;;;-140.72;100.00;52299.56;4990842;28;19969;-75
2023/06/26 04:46:58;;;;;;;;;;;;;;;-140.72;100.00;52297.53;4971815;28;19930;-76
2023/06/26 04:49:24;;;;;;;;;;;;;;;-140.72;100.00;52313.75;4985463;28;20318;-75
2023/06/26 04:51:50;;;;;;;;;;;;;;;-140.72;100.00;52273.19;4972374;28;20321;-74
2023/06/26 04:54:15;;;;;;;;;;;;;;;-140.72;100.00;52297.53;4991515;28;19926;-72
2023/06/26 04:56:41;;;;;;;;;;;;;;;-140.72;100.00;52289.41;4984879;28;19933;-76
2023/06/26 04:59:06;;;;;;;;;;;;;;;-140.72;100.00;52297.53;4990091;28;19993;-75
2023/06/26 05:01:32;;;;;;;;;;;;;;;-140.72;100.00;52301.59;4987743;28;20320;-72
2023/06/26 05:04:10;;;;;;;;;;;;;;;-140.72;100.00;52287.38;4991462;28;20020;-73
2023/06/26 05:06:36;;;;;;;;;;;;;;;-140.72;100.00;52269.13;4990934;28;19964;-72
2023/06/26 05:09:01;;;;;;;;;;;;;;;-140.72;100.00;52297.53;4990449;28;19998;-72
2023/06/26 05:11:26;;;;;;;;;;;;;;;-140.72;100.00;52297.53;4997573;28;20020;-72
2023/06/26 05:13:53;;;;;;;;;;;;;;;-140.72;100.00;52291.44;4985998;28;20021;-72
2023/06/26 05:16:19;;;;;;;;;;;;;;;-140.72;100.00;52299.56;4993605;28;19966;-72
2023/06/26 05:18:44;;;;;;;;;;;;;;;-140.72;100.00;52311.72;4975090;28;20454;-72
2023/06/26 05:21:09;;;;;;;;;;;;;;;-140.72;100.00;52301.59;4992476;28;19929;-72
2023/06/26 05:23:35;;;;;;;;;;;;;;;-140.72;100.00;52269.13;4992704;28;20424;-72
2023/06/26 05:26:00;;;;;;;;;;;;;;;-140.72;100.00;52275.19;4992339;28;19922;-72
2023/06/26 05:28:27;;;;;;;;;;;;;;;-140.72;100.00;52334.03;4993248;28;19917;-75
2023/06/26 05:30:52;;;;;;;;;;;;;;;-140.72;100.00;52317.81;4970022;28;19989;-72
2023/06/26 05:33:29;;;;;;;;;;;;;;;-140.72;100.00;52305.63;4989116;28;20343;-72
2023/06/26 05:35:55;;;;;;;;;;;;;;;-140.72;100.00;52301.59;4975632;28;19928;-72
2023/06/26 05:38:20;;;;;;;;;;;;;;;-140.72;100.00;52252.88;4969903;28;19922;-72
2023/06/26 05:40:46;;;;;;;;;;;;;;;-140.72;100.00;52277.22;4994921;28;19929;-72
2023/06/26 05:43:11;;;;;;;;;;;;;;;-140.72;100.00;52256.94;4998438;28;20016;-72
2023/06/26 05:45:36;;;;;;;;;;;;;;;-140.72;100.00;52277.22;4973547;28;20017;-72
2023/06/26 05:48:01;;;;;;;;;;;;;;;-140.72;100.00;52279.25;4990729;28;19957;-72
2023/06/26 05:50:27;;;;;;;;;;;;;;;-140.72;100.00;52299.56;4993114;28;19957;-73
2023/06/26 05:52:53;;;;;;;;;;;;;;;-140.72;100.00;52256.94;4989697;28;20048;-72
2023/06/26 05:55:26;;;;;;;;;;;;;;;-140.72;100.00;52263.03;4968001;28;19931;-72
2023/06/26 05:57:52;;;;;;;;;;;;;;;-140.72;100.00;52279.25;4976093;28;20025;-73
2023/06/26 06:03:20;;;;;;;;;;;;;;;-140.72;100.00;52269.13;4987467;28;19992;-73
2023/06/26 06:05:46;;;;;;;;;;;;;;;-140.72;100.00;52301.59;4986735;28;19922;-72
2023/06/26 06:08:12;;;;;;;;;;;;;;;-140.72;100.00;52258.97;4984612;28;20315;-73
2023/06/26 06:10:37;;;;;;;;;;;;;;;-140.72;100.00;52273.19;4966962;28;19922;-71
2023/06/26 06:13:02;;;;;;;;;;;;;;;-140.72;100.00;52285.34;4988664;28;19925;-72
2023/06/26 06:15:28;;;;;;;;;;;;;;;-140.72;92.48;52289.41;4983768;28;19970;-72
2023/06/26 06:17:53;;;;;;;;;;;;;;;-140.72;69.38;52277.22;4985589;28;19930;-71
2023/06/26 06:20:21;;;;;;;;;;;;;;;-140.72;56.41;52265.06;4984902;28;19989;-69
2023/06/26 06:22:48;;;;;;;;;;;;;;;-140.72;40.70;52287.38;4995217;28;19939;-69
2023/06/26 06:25:13;;;;;;;;;;;;;;;-140.72;1.91;52206.22;4975547;28;20380;-69
2023/06/26 06:27:38;;;;;;;;;;;;;;;-140.72;0.00;52212.31;4984651;28;19944;-69
2023/06/26 06:30:04;;;;;;;;;;;;;;;-140.72;0.00;52258.97;4986881;28;19930;-69
2023/06/26 06:32:29;;;;;;;;;;;;;;;-140.72;0.00;52254.91;4989056;28;19967;-69
2023/06/26 06:34:54;;;;;;;;;;;;;;;-140.72;0.00;52244.78;4971401;28;19925;-69
2023/06/26 06:37:20;;;;;;;;;;;;;;;-140.72;0.00;52240.72;4988941;28;20004;-68
2023/06/26 06:39:45;;;;;;;;;;;;;;;-140.72;0.00;52224.47;4976014;28;19933;-70
2023/06/26 06:42:10;;;;;;;;;;;;;;;-140.72;0.00;52271.16;4988662;28;19918;-69
2023/06/26 06:44:35;;;;;;;;;;;;;;;-140.72;0.00;52234.63;4988013;28;19924;-68
2023/06/26 06:47:01;;;;;;;;;;;;;;;-140.72;0.00;52224.47;4989049;28;20391;-68
2023/06/26 06:49:26;;;;;;;;;;;;;;;-140.72;0.00;52248.81;4986796;28;19926;-69
2023/06/26 06:51:51;;;;;;;;;;;;;;;-140.72;0.00;52220.41;4988400;28;20236;-69
2023/06/26 06:54:17;;;;;;;;;;;;;;;-140.72;0.00;52236.66;4970091;28;19917;-69
2023/06/26 06:56:42;;;;;;;;;;;;;;;-140.72;0.00;52279.25;4986037;28;19922;-68
2023/06/26 06:59:07;;;;;;;;;;;;;;;-140.72;0.00;52234.63;4980649;28;19928;-69
2023/06/26 07:01:33;;;;;;;;;;;;;;;-140.72;0.00;52285.34;4987959;28;19968;-68
2023/06/26 07:03:58;;;;;;;;;;;;;;;-140.72;0.00;52265.06;4972094;28;19973;-68
2023/06/26 07:06:23;;;;;;;;;;;;;;;-140.72;0.00;52250.84;4987783;28;19966;-69
2023/06/26 07:08:49;;;;;;;;;;;;;;;-140.72;0.00;52283.31;4982021;28;19926;-69
2023/06/26 07:11:14;;;;;;;;;;;;;;;-140.72;0.00;52242.75;4985352;28;19922;-69
2023/06/26 07:13:40;;;;;;;;;;;;;;;-140.72;0.00;52252.88;4980786;28;20038;-71
2023/06/26 07:16:05;;;;;;;;;;;;;;;-140.72;0.00;52261.00;4991545;28;20264;-70
2023/06/26 07:18:30;;;;;;;;;;;;;;;-140.72;0.00;52248.81;4979439;28;19967;-71
2023/06/26 07:20:55;;;;;;;;;;;;;;;-140.72;0.00;52289.41;4979660;28;19922;-70
2023/06/26 07:23:21;;;;;;;;;;;;;;;-140.72;0.00;52263.03;4988063;28;19918;-71
2023/06/26 07:25:46;;;;;;;;;;;;;;;-140.72;0.00;52256.94;4976152;28;19928;-71
2023/06/26 07:28:12;;;;;;;;;;;;;;;-140.72;0.00;52265.06;4991857;28;19929;-71
2023/06/26 07:30:37;;;;;;;;;;;;;;;-140.72;0.00;52261.00;4988587;28;20009;-71
2023/06/26 07:33:04;;;;;;;;;;;;;;;-140.72;0.00;52277.22;4988117;28;19921;-71
2023/06/26 07:35:31;;;;;;;;;;;;;;;-140.72;0.00;52327.97;4992713;28;19922;-71
2023/06/26 07:37:56;;;;;;;;;;;;;;;-140.72;0.00;52232.59;4991789;28;19917;-71
2023/06/26 07:40:32;;;;;;;;;;;;;;;-140.72;0.00;52238.69;4989467;28;19928;-70
2023/06/26 07:42:58;;;;;;;;;;;;;;;-140.72;0.00;52232.59;4984707;28;19922;-70
2023/06/26 07:45:23;;;;;;;;;;;;;;;-140.72;0.00;52271.16;4986839;28;19941;-69
2023/06/26 07:47:48;;;;;;;;;;;;;;;-140.72;0.00;52248.81;4965239;28;20016;-69
2023/06/26 07:50:19;;;;;;;;;;;;;;;-140.72;0.00;52258.97;4981343;28;20010;-71
2023/06/26 07:52:44;;;;;;;;;;;;;;;-140.72;0.00;52242.75;4980304;28;19917;-70
2023/06/26 07:55:26;;;;;;;;;;;;;;;-140.72;0.00;52252.88;4981014;28;20027;-70
2023/06/26 07:57:52;;;;;;;;;;;;;;;-140.72;0.00;52246.78;4972919;28;19948;-70
2023/06/26 08:00:17;;;;;;;;;;;;;;;-140.72;0.00;52263.03;4994028;28;20343;-70
2023/06/26 08:02:42;;;;;;;;;;;;;;;-140.72;0.00;52244.78;4989703;28;19929;-69
2023/06/26 08:05:08;;;;;;;;;;;;;;;-140.72;0.00;52208.25;4991635;28;20391;-69
2023/06/26 08:07:33;;;;;;;;;;;;;;;-140.72;0.00;52224.47;4990077;28;20368;-70
2023/06/26 08:09:58;;;;;;;;;;;;;;;-140.72;0.00;52242.75;4984981;28;20117;-71
2023/06/26 08:12:23;;;;;;;;;;;;;;;-140.72;0.00;52242.75;4988511;28;19930;-70
2023/06/26 08:14:49;;;;;;;;;;;;;;;-140.72;0.00;52244.78;4990630;28;19979;-69
2023/06/26 08:17:14;;;;;;;;;;;;;;;-140.72;0.00;52242.75;4995241;28;19968;-70
2023/06/26 08:19:39;;;;;;;;;;;;;;;-140.72;0.00;52226.50;4992561;28;19921;-70
2023/06/26 08:22:05;;;;;;;;;;;;;;;-140.72;0.00;52192.00;4993234;28;20390;-71
2023/06/26 08:24:30;;;;;;;;;;;;;;;-140.72;0.00;52179.84;4977676;28;20380;-70
2023/06/26 08:26:57;;;;;;;;;;;;;;;-140.72;0.00;52177.81;4979740;28;19924;-72
2023/06/26 08:29:23;;;;;;;;;;;;;;;-140.72;0.00;52187.97;4971460;28;20360;-73
2023/06/26 08:31:48;;;;;;;;;;;;;;;-140.72;0.00;52159.56;4985484;28;19945;-73
2023/06/26 08:34:13;;;;;;;;;;;;;;;-140.72;0.00;52189.97;4991952;28;20364;-73
2023/06/26 08:36:40;;;;;;;;;;;;;;;-140.72;0.00;52149.41;4976327;28;19917;-73
2023/06/26 08:39:05;;;;;;;;;;;;;;;-140.72;0.00;52173.75;4984711;28;20296;-73
2023/06/26 08:41:31;;;;;;;;;;;;;;;-140.72;0.00;52194.03;4969758;28;19922;-73
2023/06/26 08:43:56;;;;;;;;;;;;;;;-140.72;0.00;52177.81;4983981;28;20262;-73
2023/06/26 08:46:21;;;;;;;;;;;;;;;-140.72;0.00;52187.97;4968037;28;19994;-73
2023/06/26 08:48:56;;;;;;;;;;;;;;;-140.72;0.00;52163.59;4988347;28;20267;-74
2023/06/26 08:51:24;;;;;;;;;;;;;;;-140.72;0.00;52135.19;4984548;28;20014;-73
2023/06/26 08:53:55;;;;;;;;;;;;;;;-140.72;0.00;52141.28;4969271;28;19918;-73
2023/06/26 08:56:22;;;;;;;;;;;;;;;-140.72;0.00;52133.16;4989724;28;20478;-73
2023/06/26 08:58:47;;;;;;;;;;;;;;;-140.72;0.00;52175.78;4984502;28;20381;-72
2023/06/26 09:01:13;;;;;;;;;;;;;;;-140.72;0.00;52183.91;4985134;28;19926;-74
2023/06/26 09:03:38;;;;;;;;;;;;;;;-140.72;0.00;52177.81;4987952;28;19926;-74
2023/06/26 09:06:03;;;;;;;;;;;;;;;-140.72;0.00;52143.31;4985554;28;20009;-73
2023/06/26 09:08:28;;;;;;;;;;;;;;;-140.72;0.00;52112.88;4993326;28;19929;-75
2023/06/26 09:10:54;;;;;;;;;;;;;;;-140.72;0.00;52068.25;4994166;28;19957;-74
2023/06/26 09:13:19;;;;;;;;;;;;;;;-140.72;0.00;52094.63;4977574;28;20388;-75
2023/06/26 09:15:45;;;;;;;;;;;;;;;-140.72;0.00;52052.00;4969534;28;19998;-74
2023/06/26 09:18:10;;;;;;;;;;;;;;;-140.72;0.00;52078.38;4987888;28;19953;-73
2023/06/26 09:20:36;;;;;;;;;;;;;;;-140.72;0.00;52068.25;4983816;28;19976;-74
2023/06/26 09:23:02;;;;;;;;;;;;;;;-140.72;0.00;52092.59;4987683;28;20009;-74
2023/06/26 09:25:27;;;;;;;;;;;;;;;-140.72;0.00;52155.50;4986422;28;19921;-73
2023/06/26 09:27:53;;;;;;;;;;;;;;;-140.72;0.00;52143.31;4988862;28;19929;-74
2023/06/26 09:30:18;;;;;;;;;;;;;;;-140.72;0.00;52086.50;4980544;28;19929;-74
2023/06/26 09:32:45;;;;;;;;;;;;;;;-140.72;0.00;52037.81;4985159;28;20445;-74
2023/06/26 09:35:11;;;;;;;;;;;;;;;-140.72;0.00;52116.94;4986036;28;20017;-75
2023/06/26 09:37:36;;;;;;;;;;;;;;;-140.72;0.00;52037.81;4985599;28;19948;-75
2023/06/26 09:40:03;;;;;;;;;;;;;;;-140.72;0.00;52100.72;4975610;28;19921;-76
2023/06/26 09:42:28;;;;;;;;;;;;;;;-140.72;0.00;52041.88;4984144;28;19926;-74
2023/06/26 09:44:54;;;;;;;;;;;;;;;-140.72;0.00;51983.03;4985733;28;19933;-74
2023/06/26 09:47:19;;;;;;;;;;;;;;;-140.72;0.00;51981.00;4991464;28;19929;-74
2023/06/26 09:49:45;;;;;;;;;;;;;;;-140.72;0.00;52035.78;4986234;28;19922;-74
2023/06/26 09:52:15;;;;;;;;;;;;;;;-140.72;0.00;51981.00;4985088;28;19980;-74
2023/06/26 09:54:41;;;;;;;;;;;;;;;-140.72;0.00;51985.06;4970078;28;19929;-74
2023/06/26 09:57:09;;;;;;;;;;;;;;;-140.72;0.00;52023.59;4984960;28;19922;-74
2023/06/26 09:59:35;;;;;;;;;;;;;;;-140.72;0.00;52025.63;4979867;28;20297;-74
2023/06/26 10:02:00;;;;;;;;;;;;;;;-140.72;0.00;52035.78;4982866;28;19929;-74
2023/06/26 10:04:26;;;;;;;;;;;;;;;-140.72;0.00;51966.81;4987170;28;19929;-74
2023/06/26 10:06:54;;;;;;;;;;;;;;;-140.72;0.00;51948.53;4986965;28;19921;-74
2023/06/26 10:09:20;;;;;;;;;;;;;;;-140.72;0.00;51952.59;4992095;28;20410;-74
2023/06/26 10:11:55;;;;;;;;;;;;;;;-140.72;0.00;51893.75;4989095;28;19922;-74
2023/06/26 10:14:22;;;;;;;;;;;;;;;-140.72;0.00;52049.97;4987001;28;20507;-74
2023/06/26 10:16:48;;;;;;;;;;;;;;;-140.72;0.00;51958.69;4991914;28;19933;-74
2023/06/26 10:19:18;;;;;;;;;;;;;;;-140.72;0.00;51920.13;4974418;28;19972;-74
2023/06/26 10:21:44;;;;;;;;;;;;;;;-140.72;0.00;51958.69;4969152;28;19918;-74
2023/06/26 10:24:10;;;;;;;;;;;;;;;-140.72;0.00;51936.38;4971296;28;20435;-72
2023/06/26 10:26:38;;;;;;;;;;;;;;;-140.72;0.00;51976.94;4973940;28;19937;-73
2023/06/26 10:29:04;;;;;;;;;;;;;;;-140.72;0.00;52017.53;4989892;28;20351;-73
2023/06/26 10:31:30;;;;;;;;;;;;;;;-140.72;0.00;52013.47;4989284;28;19922;-73
2023/06/26 10:33:56;;;;;;;;;;;;;;;-140.72;0.00;51950.56;4989618;28;19926;-74
2023/06/26 10:36:27;;;;;;;;;;;;;;;-140.72;0.00;51989.13;4988009;28;20416;-74
2023/06/26 10:38:53;;;;;;;;;;;;;;;-140.72;0.00;51942.44;4986763;28;20547;-73
2023/06/26 10:41:46;;;;;;;;;;;;;;;-140.72;0.00;52001.28;4975258;28;20032;-73
2023/06/26 10:44:12;;;;;;;;;;;;;;;-140.72;0.00;52021.56;4992955;28;19918;-73
2023/06/26 10:46:50;;;;;;;;;;;;;;;-140.72;0.00;51962.75;4975709;28;20383;-72
2023/06/26 10:49:15;;;;;;;;;;;;;;;-140.72;0.00;51972.88;4968352;28;20009;-73
2023/06/26 10:51:50;;;;;;;;;;;;;;;-140.72;0.00;51903.91;4976668;28;19925;-73
2023/06/26 10:54:16;;;;;;;;;;;;;;;-140.72;0.00;51928.25;4990312;28;19918;-73
2023/06/26 10:56:43;;;;;;;;;;;;;;;-140.72;0.00;51871.44;4999755;28;19918;-73
2023/06/26 10:59:13;;;;;;;;;;;;;;;-140.72;0.00;51879.56;4995259;28;19977;-73
2023/06/26 11:01:42;;;;;;;;;;;;;;;-140.72;0.00;51905.94;4989433;28;19921;-73
2023/06/26 11:04:08;;;;;;;;;;;;;;;-140.72;0.00;51849.13;4993782;28;20118;-71
2023/06/26 11:06:34;;;;;;;;;;;;;;;-140.72;0.00;51814.63;4991631;28;19953;-71
2023/06/26 11:08:59;;;;;;;;;;;;;;;-140.72;0.00;51786.22;4978667;28;19993;-72
2023/06/26 11:11:43;;;;;;;;;;;;;;;-140.72;0.00;51883.63;4974847;28;20355;-73
2023/06/26 11:14:09;;;;;;;;;;;;;;;-140.72;0.00;51958.69;4991601;28;20016;-73
2023/06/26 11:16:35;;;;;;;;;;;;;;;-140.72;0.00;51962.75;4992626;28;19924;-73
2023/06/26 11:19:01;;;;;;;;;;;;;;;-140.72;0.00;51816.66;4978154;28;20008;-71
2023/06/26 11:21:26;;;;;;;;;;;;;;;-140.72;0.00;51912.03;4979387;28;19918;-73
2023/06/26 11:23:54;;;;;;;;;;;;;;;-140.72;0.00;51895.78;4997564;28;19924;-73
2023/06/26 11:26:22;;;;;;;;;;;;;;;-140.72;0.00;51857.25;4991814;28;19926;-72
2023/06/26 11:28:52;;;;;;;;;;;;;;;-140.72;0.00;51838.97;4972272;28;19922;-71
2023/06/26 11:31:31;;;;;;;;;;;;;;;-140.72;0.00;51877.53;4992155;28;20080;-71
2023/06/26 11:33:58;;;;;;;;;;;;;;;-140.72;0.00;51879.56;4986930;28;20424;-72
2023/06/26 11:36:24;;;;;;;;;;;;;;;-140.72;0.00;51861.28;4993957;28;20237;-73
2023/06/26 11:38:57;;;;;;;;;;;;;;;-140.72;0.00;51794.34;4986385;28;19918;-73
2023/06/26 11:41:23;;;;;;;;;;;;;;;-140.72;0.00;51910.00;4984501;28;19922;-73
2023/06/26 11:43:48;;;;;;;;;;;;;;;-140.72;0.00;52031.72;4996168;28;19989;-72
2023/06/26 11:46:16;;;;;;;;;;;;;;;-140.72;0.00;51865.34;4995143;28;20028;-73
2023/06/26 11:48:41;;;;;;;;;;;;;;;-140.72;0.00;51863.31;4983750;28;19962;-72
2023/06/26 11:51:06;;;;;;;;;;;;;;;-140.72;0.00;51824.78;4994943;28;19972;-72
2023/06/26 11:53:31;;;;;;;;;;;;;;;-140.72;0.00;51826.81;4996042;28;20377;-72
2023/06/26 11:55:57;;;;;;;;;;;;;;;-140.72;0.00;51853.19;4977484;28;20041;-72
2023/06/26 11:58:22;;;;;;;;;;;;;;;-140.72;0.00;51790.28;4995898;28;19918;-73
2023/06/26 12:00:47;;;;;;;;;;;;;;;-140.72;0.00;51885.66;4987051;28;19922;-73
2023/06/26 12:03:13;;;;;;;;;;;;;;;-140.72;0.00;51834.91;4983416;28;19922;-73
2023/06/26 12:05:38;;;;;;;;;;;;;;;-140.72;0.00;51863.31;4970146;28;20419;-72
2023/06/26 12:08:06;;;;;;;;;;;;;;;-140.72;0.00;51863.31;4983141;28;19918;-72
2023/06/26 12:10:31;;;;;;;;;;;;;;;-140.72;0.00;51867.38;4968768;28;20045;-73
2023/06/26 12:13:01;;;;;;;;;;;;;;;-140.72;0.00;51851.16;4993548;28;19929;-75
2023/06/26 12:15:27;;;;;;;;;;;;;;;-140.72;0.00;51869.41;4989102;28;19925;-75
2023/06/26 12:17:53;;;;;;;;;;;;;;;-140.72;0.00;51847.09;4986917;28;20345;-73
2023/06/26 12:20:22;;;;;;;;;;;;;;;-140.72;0.00;51820.72;4993603;28;19944;-73
2023/06/26 12:22:48;;;;;;;;;;;;;;;-140.72;0.00;51893.75;4990512;28;20016;-72
2023/06/26 12:25:13;;;;;;;;;;;;;;;-140.72;0.00;51899.84;4990277;28;19929;-72
2023/06/26 12:27:39;;;;;;;;;;;;;;;-140.72;0.00;51905.94;4990882;28;19922;-73